sensor_id;sensor_type;location;lat;lon;timestamp;pressure;altitude;pressure_sealevel;temperature;humidity
54882;BME280;40775;51.448;4.742;2023-04-10T00:00:35;101925.56;;;10.93;100.00
54882;BME280;40775;51.448;4.742;2023-04-10T00:03:03;101924.44;;;10.86;100.00
54882;BME280;40775;51.448;4.742;2023-04-10T00:05:32;101925.41;;;10.88;100.00
54882;BME280;40775;51.448;4.742;2023-04-10T00:07:59;101925.44;;;10.90;100.00
54882;BME280;40775;51.448;4.742;2023-04-10T00:10:26;101924.84;;;10.97;100.00
54882;BME280;40775;51.448;4.742;2023-04-10T00:12:56;101921.19;;;10.93;100.00
54882;BME280;40775;51.448;4.742;2023-04-10T00:15:24;101909.41;;;11.06;100.00
54882;BME280;40775;51.448;4.742;2023-04-10T00:17:51;101910.16;;;11.02;100.00
54882;BME280;40775;51.448;4.742;2023-04-10T00:20:22;101905.28;;;10.89;100.00
54882;BME280;40775;51.448;4.742;2023-04-10T00:22:49;101910.31;;;11.06;100.00
54882;BME280;40775;51.448;4.742;2023-04-10T00:25:16;101910.34;;;11.08;100.00
54882;BME280;40775;51.448;4.742;2023-04-10T00:27:43;101905.94;;;11.07;100.00
54882;BME280;40775;51.448;4.742;2023-04-10T00:30:10;101907.56;;;11.03;100.00
54882;BME280;40775;51.448;4.742;2023-04-10T00:32:38;101905.84;;;11.04;100.00
54882;BME280;40775;51.448;4.742;2023-04-10T00:35:07;101906.78;;;11.06;100.00
54882;BME280;40775;51.448;4.742;2023-04-10T00:37:34;101913.59;;;11.01;100.00
54882;BME280;40775;51.448;4.742;2023-04-10T00:40:02;101903.94;;;11.00;100.00
54882;BME280;40775;51.448;4.742;2023-04-10T00:42:29;101906.72;;;11.04;100.00
54882;BME280;40775;51.448;4.742;2023-04-10T00:44:56;101906.56;;;11.00;100.00
54882;BME280;40775;51.448;4.742;2023-04-10T00:47:24;101916.34;;;11.04;100.00
54882;BME280;40775;51.448;4.742;2023-04-10T00:49:51;101907.50;;;11.02;100.00
54882;BME280;40775;51.448;4.742;2023-04-10T00:52:19;101899.78;;;11.06;100.00
54882;BME280;40775;51.448;4.742;2023-04-10T00:54:46;101897.84;;;11.01;100.00
54882;BME280;40775;51.448;4.742;2023-04-10T00:57:13;101898.69;;;11.00;100.00
54882;BME280;40775;51.448;4.742;2023-04-10T00:59:40;101889.03;;;10.99;100.00
54882;BME280;40775;51.448;4.742;2023-04-10T01:02:07;101889.16;;;11.03;100.00
54882;BME280;40775;51.448;4.742;2023-04-10T01:04:34;101890.75;;;10.98;100.00
54882;BME280;40775;51.448;4.742;2023-04-10T01:10:38;101882.34;;;11.08;100.00
54882;BME280;40775;51.448;4.742;2023-04-10T01:13:33;101888.06;;;10.97;100.00
54882;BME280;40775;51.448;4.742;2023-04-10T01:16:15;101875.94;;;11.00;100.00
54882;BME280;40775;51.448;4.742;2023-04-10T01:19:15;101873.16;;;10.96;100.00
54882;BME280;40775;51.448;4.742;2023-04-10T01:21:50;101867.94;;;10.97;100.00
54882;BME280;40775;51.448;4.742;2023-04-10T01:30:43;101851.69;;;10.83;100.00
54882;BME280;40775;51.448;4.742;2023-04-10T01:33:17;101854.16;;;10.79;100.00
54882;BME280;40775;51.448;4.742;2023-04-10T01:35:51;101850.78;;;10.83;100.00
54882;BME280;40775;51.448;4.742;2023-04-10T01:38:20;101849.78;;;10.79;100.00
54882;BME280;40775;51.448;4.742;2023-04-10T01:40:52;101852.41;;;10.79;100.00
54882;BME280;40775;51.448;4.742;2023-04-10T01:43:21;101846.22;;;10.77;100.00
54882;BME280;40775;51.448;4.742;2023-04-10T01:45:50;101845.28;;;10.75;100.00
54882;BME280;40775;51.448;4.742;2023-04-10T01:48:18;101842.69;;;10.77;100.00
54882;BME280;40775;51.448;4.742;2023-04-10T01:50:47;101840.66;;;10.68;100.00
54882;BME280;40775;51.448;4.742;2023-04-10T01:53:14;101835.59;;;10.74;100.00
54882;BME280;40775;51.448;4.742;2023-04-10T01:55:42;101835.44;;;10.70;100.00
54882;BME280;40775;51.448;4.742;2023-04-10T01:58:10;101832.03;;;10.72;100.00
54882;BME280;40775;51.448;4.742;2023-04-10T02:00:41;101833.72;;;10.70;100.00
54882;BME280;40775;51.448;4.742;2023-04-10T02:03:09;101831.78;;;10.66;100.00
54882;BME280;40775;51.448;4.742;2023-04-10T02:06:10;101825.44;;;10.60;100.00
54882;BME280;40775;51.448;4.742;2023-04-10T02:08:56;101826.31;;;10.60;100.00
54882;BME280;40775;51.448;4.742;2023-04-10T02:11:37;101821.28;;;10.66;100.00
54882;BME280;40775;51.448;4.742;2023-04-10T02:14:10;101814.94;;;10.60;100.00
54882;BME280;40775;51.448;4.742;2023-04-10T02:16:42;101813.19;;;10.60;100.00
54882;BME280;40775;51.448;4.742;2023-04-10T02:19:10;101809.69;;;10.60;100.00
54882;BME280;40775;51.448;4.742;2023-04-10T02:21:38;101819.19;;;10.56;100.00
54882;BME280;40775;51.448;4.742;2023-04-10T02:24:07;101820.97;;;10.57;100.00
54882;BME280;40775;51.448;4.742;2023-04-10T02:26:49;101814.78;;;10.55;100.00
54882;BME280;40775;51.448;4.742;2023-04-10T02:29:17;101813.81;;;10.53;100.00
54882;BME280;40775;51.448;4.742;2023-04-10T02:31:45;101817.50;;;10.58;100.00
54882;BME280;40775;51.448;4.742;2023-04-10T02:34:12;101812.16;;;10.55;100.00
54882;BME280;40775;51.448;4.742;2023-04-10T02:36:39;101819.88;;;10.50;100.00
54882;BME280;40775;51.448;4.742;2023-04-10T02:39:06;101820.97;;;10.57;100.00
54882;BME280;40775;51.448;4.742;2023-04-10T02:41:36;101821.91;;;10.59;100.00
54882;BME280;40775;51.448;4.742;2023-04-10T02:44:03;101823.28;;;10.48;100.00
54882;BME280;40775;51.448;4.742;2023-04-10T02:46:32;101820.66;;;10.48;100.00
54882;BME280;40775;51.448;4.742;2023-04-10T02:49:00;101822.31;;;10.46;100.00
54882;BME280;40775;51.448;4.742;2023-04-10T02:51:27;101827.69;;;10.49;100.00
54882;BME280;40775;51.448;4.742;2023-04-10T02:53:54;101825.78;;;10.45;100.00
54882;BME280;40775;51.448;4.742;2023-04-10T02:56:21;101824.94;;;10.46;100.00
54882;BME280;40775;51.448;4.742;2023-04-10T02:58:48;101821.13;;;10.38;100.00
54882;BME280;40775;51.448;4.742;2023-04-10T03:01:15;101821.97;;;10.37;100.00
54882;BME280;40775;51.448;4.742;2023-04-10T03:03:43;101823.66;;;10.35;100.00
54882;BME280;40775;51.448;4.742;2023-04-10T03:06:10;101823.59;;;10.33;100.00
54882;BME280;40775;51.448;4.742;2023-04-10T03:08:37;101817.22;;;10.27;100.00
54882;BME280;40775;51.448;4.742;2023-04-10T03:11:04;101825.25;;;10.31;100.00
54882;BME280;40775;51.448;4.742;2023-04-10T03:13:31;101817.06;;;10.22;100.00
54882;BME280;40775;51.448;4.742;2023-04-10T03:15:58;101817.00;;;10.20;100.00
54882;BME280;40775;51.448;4.742;2023-04-10T03:18:25;101811.50;;;10.14;100.00
54882;BME280;40775;51.448;4.742;2023-04-10T03:20:52;101803.50;;;10.11;100.00
54882;BME280;40775;51.448;4.742;2023-04-10T03:23:19;101808.63;;;10.08;100.00
54882;BME280;40775;51.448;4.742;2023-04-10T03:25:50;101805.16;;;10.09;100.00
54882;BME280;40775;51.448;4.742;2023-04-10T03:28:21;101802.47;;;10.08;100.00
54882;BME280;40775;51.448;4.742;2023-04-10T03:30:51;101797.91;;;10.02;100.00
54882;BME280;40775;51.448;4.742;2023-04-10T03:33:18;101798.81;;;10.03;100.00
54882;BME280;40775;51.448;4.742;2023-04-10T03:35:45;101789.97;;;10.01;100.00
54882;BME280;40775;51.448;4.742;2023-04-10T03:38:13;101790.81;;;10.00;100.00
54882;BME280;40775;51.448;4.742;2023-04-10T03:40:40;101795.00;;;9.95;100.00
54882;BME280;40775;51.448;4.742;2023-04-10T03:43:07;101785.41;;;9.95;100.00
54882;BME280;40775;51.448;4.742;2023-04-10T03:45:34;101790.59;;;9.94;100.00
54882;BME280;40775;51.448;4.742;2023-04-10T03:48:01;101785.22;;;9.90;100.00
54882;BME280;40775;51.448;4.742;2023-04-10T03:50:28;101776.38;;;9.87;100.00
54882;BME280;40775;51.448;4.742;2023-04-10T03:52:56;101768.56;;;9.88;100.00
54882;BME280;40775;51.448;4.742;2023-04-10T03:55:23;101775.38;;;9.85;100.00
54882;BME280;40775;51.448;4.742;2023-04-10T03:57:50;101763.16;;;9.85;100.00
54882;BME280;40775;51.448;4.742;2023-04-10T04:00:17;101762.34;;;9.86;100.00
54882;BME280;40775;51.448;4.742;2023-04-10T04:02:44;101759.78;;;9.88;100.00
54882;BME280;40775;51.448;4.742;2023-04-10T04:05:11;101752.56;;;9.82;100.00
54882;BME280;40775;51.448;4.742;2023-04-10T04:07:39;101751.09;;;9.89;100.00
54882;BME280;40775;51.448;4.742;2023-04-10T04:10:06;101752.44;;;9.79;100.00
54882;BME280;40775;51.448;4.742;2023-04-10T04:12:34;101751.91;;;9.88;100.00
54882;BME280;40775;51.448;4.742;2023-04-10T04:15:01;101749.94;;;9.82;100.00
54882;BME280;40775;51.448;4.742;2023-04-10T04:17:28;101745.41;;;9.78;100.00
54882;BME280;40775;51.448;4.742;2023-04-10T04:19:55;101744.69;;;9.82;100.00
54882;BME280;40775;51.448;4.742;2023-04-10T04:22:22;101747.56;;;9.88;100.00
54882;BME280;40775;51.448;4.742;2023-04-10T04:24:49;101746.25;;;9.77;100.00
54882;BME280;40775;51.448;4.742;2023-04-10T04:27:16;101737.53;;;9.78;100.00
54882;BME280;40775;51.448;4.742;2023-04-10T04:29:43;101735.03;;;9.81;100.00
54882;BME280;40775;51.448;4.742;2023-04-10T04:32:10;101736.75;;;9.81;100.00
54882;BME280;40775;51.448;4.742;2023-04-10T04:34:37;101734.81;;;9.75;100.00
54882;BME280;40775;51.448;4.742;2023-04-10T04:37:04;101739.28;;;9.78;100.00
54882;BME280;40775;51.448;4.742;2023-04-10T04:39:31;101735.72;;;9.76;100.00
54882;BME280;40775;51.448;4.742;2023-04-10T04:41:58;101742.72;;;9.77;100.00
54882;BME280;40775;51.448;4.742;2023-04-10T04:44:25;101738.31;;;9.76;100.00
54882;BME280;40775;51.448;4.742;2023-04-10T04:46:52;101733.91;;;9.75;100.00
54882;BME280;40775;51.448;4.742;2023-04-10T04:49:19;101734.88;;;9.77;100.00
54882;BME280;40775;51.448;4.742;2023-04-10T04:51:46;101732.19;;;9.75;100.00
54882;BME280;40775;51.448;4.742;2023-04-10T04:54:13;101722.72;;;9.79;100.00
54882;BME280;40775;51.448;4.742;2023-04-10T04:56:41;101719.88;;;9.73;100.00
54882;BME280;40775;51.448;4.742;2023-04-10T04:59:08;101726.00;;;9.73;100.00
54882;BME280;40775;51.448;4.742;2023-04-10T05:01:35;101715.50;;;9.73;100.00
54882;BME280;40775;51.448;4.742;2023-04-10T05:04:02;101714.63;;;9.73;100.00
54882;BME280;40775;51.448;4.742;2023-04-10T05:06:30;101706.53;;;9.67;100.00
54882;BME280;40775;51.448;4.742;2023-04-10T05:08:57;101705.63;;;9.66;100.00
54882;BME280;40775;51.448;4.742;2023-04-10T05:11:25;101710.94;;;9.68;100.00
54882;BME280;40775;51.448;4.742;2023-04-10T05:13:52;101702.41;;;9.73;100.00
54882;BME280;40775;51.448;4.742;2023-04-10T05:16:19;101711.16;;;9.74;100.00
54882;BME280;40775;51.448;4.742;2023-04-10T05:18:46;101713.88;;;9.77;100.00
54882;BME280;40775;51.448;4.742;2023-04-10T05:21:13;101713.88;;;9.77;100.00
54882;BME280;40775;51.448;4.742;2023-04-10T05:23:41;101719.91;;;9.74;100.00
54882;BME280;40775;51.448;4.742;2023-04-10T05:26:08;101727.00;;;9.77;100.00
54882;BME280;40775;51.448;4.742;2023-04-10T05:28:35;101717.34;;;9.76;100.00
54882;BME280;40775;51.448;4.742;2023-04-10T05:31:02;101722.59;;;9.76;100.00
54882;BME280;40775;51.448;4.742;2023-04-10T05:33:29;101717.25;;;9.73;100.00
54882;BME280;40775;51.448;4.742;2023-04-10T05:35:56;101717.50;;;9.80;100.00
54882;BME280;40775;51.448;4.742;2023-04-10T05:38:23;101723.66;;;9.81;100.00
54882;BME280;40775;51.448;4.742;2023-04-10T05:40:50;101720.97;;;9.79;100.00
54882;BME280;40775;51.448;4.742;2023-04-10T05:43:17;101728.06;;;9.82;100.00
54882;BME280;40775;51.448;4.742;2023-04-10T05:45:44;101736.25;;;10.63;100.00
54882;BME280;40775;51.448;4.742;2023-04-10T05:48:11;101729.38;;;12.68;100.00
54882;BME280;40775;51.448;4.742;2023-04-10T05:50:38;101720.72;;;13.85;100.00
54882;BME280;40775;51.448;4.742;2023-04-10T05:53:06;101715.00;;;14.51;100.00
54882;BME280;40775;51.448;4.742;2023-04-10T05:55:33;101705.19;;;14.94;100.00
54882;BME280;40775;51.448;4.742;2023-04-10T05:58:00;101700.22;;;15.14;100.00
54882;BME280;40775;51.448;4.742;2023-04-10T06:00:27;101704.88;;;15.32;100.00
54882;BME280;40775;51.448;4.742;2023-04-10T06:02:55;101697.09;;;15.41;100.00
54882;BME280;40775;51.448;4.742;2023-04-10T06:05:22;101696.28;;;15.48;100.00
54882;BME280;40775;51.448;4.742;2023-04-10T06:07:49;101695.66;;;15.63;100.00
54882;BME280;40775;51.448;4.742;2023-04-10T06:10:17;101689.56;;;15.70;100.00
54882;BME280;40775;51.448;4.742;2023-04-10T06:12:44;101687.00;;;15.76;100.00
54882;BME280;40775;51.448;4.742;2023-04-10T06:15:11;101680.81;;;15.77;100.00
54882;BME280;40775;51.448;4.742;2023-04-10T06:17:44;101686.22;;;15.86;100.00
54882;BME280;40775;51.448;4.742;2023-04-10T06:20:11;101692.50;;;15.91;100.00
54882;BME280;40775;51.448;4.742;2023-04-10T06:22:39;101679.25;;;15.93;100.00
54882;BME280;40775;51.448;4.742;2023-04-10T06:25:06;101680.22;;;15.99;100.00
54882;BME280;40775;51.448;4.742;2023-04-10T06:27:34;101668.78;;;16.02;100.00
54882;BME280;40775;51.448;4.742;2023-04-10T06:30:05;101668.81;;;16.06;100.00
54882;BME280;40775;51.448;4.742;2023-04-10T06:32:32;101664.44;;;16.10;100.00
54882;BME280;40775;51.448;4.742;2023-04-10T06:34:59;101660.94;;;16.14;100.00
54882;BME280;40775;51.448;4.742;2023-04-10T06:37:28;101654.84;;;16.20;100.00
54882;BME280;40775;51.448;4.742;2023-04-10T06:40:09;101646.06;;;16.25;100.00
54882;BME280;40775;51.448;4.742;2023-04-10T06:42:37;101653.19;;;16.31;100.00
54882;BME280;40775;51.448;4.742;2023-04-10T06:45:04;101640.84;;;16.34;100.00
54882;BME280;40775;51.448;4.742;2023-04-10T06:47:32;101640.00;;;16.38;100.00
54882;BME280;40775;51.448;4.742;2023-04-10T06:49:59;101631.19;;;16.41;100.00
54882;BME280;40775;51.448;4.742;2023-04-10T06:52:27;101632.13;;;16.45;100.00
54882;BME280;40775;51.448;4.742;2023-04-10T06:54:54;101624.19;;;16.48;100.00
54882;BME280;40775;51.448;4.742;2023-04-10T06:57:21;101624.22;;;16.52;100.00
54882;BME280;40775;51.448;4.742;2023-04-10T06:59:48;101612.75;;;16.55;100.00
54882;BME280;40775;51.448;4.742;2023-04-10T07:02:15;101617.19;;;16.59;100.00
54882;BME280;40775;51.448;4.742;2023-04-10T07:04:42;101606.59;;;16.60;100.00
54882;BME280;40775;51.448;4.742;2023-04-10T07:07:09;101603.97;;;16.62;100.00
54882;BME280;40775;51.448;4.742;2023-04-10T07:09:39;101604.00;;;16.65;100.00
54882;BME280;40775;51.448;4.742;2023-04-10T07:12:06;101596.06;;;16.66;100.00
54882;BME280;40775;51.448;4.742;2023-04-10T07:14:33;101590.78;;;16.68;100.00
54882;BME280;40775;51.448;4.742;2023-04-10T07:17:01;101581.06;;;16.70;100.00
54882;BME280;40775;51.448;4.742;2023-04-10T07:19:29;101580.22;;;16.71;100.00
54882;BME280;40775;51.448;4.742;2023-04-10T07:21:56;101581.13;;;16.73;100.00
54882;BME280;40775;51.448;4.742;2023-04-10T07:24:23;101570.53;;;16.75;100.00
54882;BME280;40775;51.448;4.742;2023-04-10T07:26:50;101567.00;;;16.74;100.00
54882;BME280;40775;51.448;4.742;2023-04-10T07:29:19;101561.69;;;16.76;100.00
54882;BME280;40775;51.448;4.742;2023-04-10T07:31:46;101559.03;;;16.76;100.00
54882;BME280;40775;51.448;4.742;2023-04-10T07:34:14;101558.16;;;16.78;100.00
54882;BME280;40775;51.448;4.742;2023-04-10T07:36:41;101546.69;;;16.78;100.00
54882;BME280;40775;51.448;4.742;2023-04-10T07:39:10;101552.00;;;16.79;100.00
54882;BME280;40775;51.448;4.742;2023-04-10T07:41:37;101546.69;;;16.79;100.00
54882;BME280;40775;51.448;4.742;2023-04-10T07:44:04;101536.06;;;16.79;100.00
54882;BME280;40775;51.448;4.742;2023-04-10T07:46:31;101538.72;;;16.79;100.00
54882;BME280;40775;51.448;4.742;2023-04-10T07:48:59;101546.69;;;16.79;100.00
54882;BME280;40775;51.448;4.742;2023-04-10T07:51:27;101540.50;;;16.80;100.00
54882;BME280;40775;51.448;4.742;2023-04-10T07:53:54;101535.22;;;16.83;100.00
54882;BME280;40775;51.448;4.742;2023-04-10T07:56:22;101539.63;;;16.84;100.00
54882;BME280;40775;51.448;4.742;2023-04-10T07:58:50;101529.91;;;16.82;100.00
54882;BME280;40775;51.448;4.742;2023-04-10T08:01:18;101530.78;;;16.82;100.00
54882;BME280;40775;51.448;4.742;2023-04-10T08:03:45;101529.91;;;16.83;100.00
54882;BME280;40775;51.448;4.742;2023-04-10T08:06:14;101530.78;;;16.84;100.00
54882;BME280;40775;51.448;4.742;2023-04-10T08:08:42;101539.63;;;16.83;100.00
54882;BME280;40775;51.448;4.742;2023-04-10T08:11:32;101536.09;;;16.84;100.00
54882;BME280;40775;51.448;4.742;2023-04-10T08:14:02;101538.75;;;16.85;100.00
54882;BME280;40775;51.448;4.742;2023-04-10T08:16:33;101522.84;;;16.85;100.00
54882;BME280;40775;51.448;4.742;2023-04-10T08:19:02;101520.19;;;16.85;100.00
54882;BME280;40775;51.448;4.742;2023-04-10T08:21:30;101506.94;;;16.87;100.00
54882;BME280;40775;51.448;4.742;2023-04-10T08:24:01;101505.16;;;16.87;100.00
54882;BME280;40775;51.448;4.742;2023-04-10T08:26:28;101497.22;;;16.86;100.00
54882;BME280;40775;51.448;4.742;2023-04-10T08:28:58;101504.28;;;16.87;100.00
54882;BME280;40775;51.448;4.742;2023-04-10T08:31:27;101499.84;;;16.86;100.00
54882;BME280;40775;51.448;4.742;2023-04-10T08:33:55;101505.16;;;16.87;100.00
54882;BME280;40775;51.448;4.742;2023-04-10T08:36:23;101506.94;;;16.85;100.00
54882;BME280;40775;51.448;4.742;2023-04-10T08:38:50;101506.06;;;16.86;100.00
54882;BME280;40775;51.448;4.742;2023-04-10T08:41:18;101509.59;;;16.88;100.00
54882;BME280;40775;51.448;4.742;2023-04-10T08:43:46;101500.72;;;16.83;100.00
54882;BME280;40775;51.448;4.742;2023-04-10T08:46:15;101494.53;;;16.81;100.00
54882;BME280;40775;51.448;4.742;2023-04-10T08:48:46;101495.44;;;16.85;100.00
54882;BME280;40775;51.448;4.742;2023-04-10T08:51:20;101498.97;;;16.88;100.00
54882;BME280;40775;51.448;4.742;2023-04-10T08:53:57;101490.16;;;16.89;100.00
54882;BME280;40775;51.448;4.742;2023-04-10T08:56:27;101493.66;;;16.82;100.00
54882;BME280;40775;51.448;4.742;2023-04-10T08:58:56;101489.25;;;16.81;100.00
54882;BME280;40775;51.448;4.742;2023-04-10T09:01:24;101477.75;;;16.82;100.00
54882;BME280;40775;51.448;4.742;2023-04-10T09:03:51;101481.28;;;16.86;100.00
54882;BME280;40775;51.448;4.742;2023-04-10T09:06:19;101485.72;;;16.87;100.00
54882;BME280;40775;51.448;4.742;2023-04-10T09:08:46;101473.34;;;16.87;100.00
54882;BME280;40775;51.448;4.742;2023-04-10T09:11:13;101460.09;;;16.89;100.00
54882;BME280;40775;51.448;4.742;2023-04-10T09:13:42;101468.06;;;16.89;100.00
54882;BME280;40775;51.448;4.742;2023-04-10T09:16:12;101462.75;;;16.89;100.00
54882;BME280;40775;51.448;4.742;2023-04-10T09:18:48;101458.31;;;16.89;100.00
54882;BME280;40775;51.448;4.742;2023-04-10T09:21:21;101459.19;;;16.88;100.00
54882;BME280;40775;51.448;4.742;2023-04-10T09:23:58;101454.78;;;16.89;100.00
54882;BME280;40775;51.448;4.742;2023-04-10T09:26:27;101458.31;;;16.88;100.00
54882;BME280;40775;51.448;4.742;2023-04-10T09:29:05;101463.63;;;16.88;100.00
54882;BME280;40775;51.448;4.742;2023-04-10T09:31:35;101456.56;;;16.90;100.00
54882;BME280;40775;51.448;4.742;2023-04-10T09:34:18;101447.72;;;16.86;100.00
54882;BME280;40775;51.448;4.742;2023-04-10T09:36:59;101445.94;;;16.87;100.00
54882;BME280;40775;51.448;4.742;2023-04-10T09:39:38;101441.53;;;16.87;100.00
54882;BME280;40775;51.448;4.742;2023-04-10T09:42:09;101425.59;;;16.87;100.00
54882;BME280;40775;51.448;4.742;2023-04-10T09:44:41;101424.72;;;16.87;100.00
54882;BME280;40775;51.448;4.742;2023-04-10T09:47:19;101422.06;;;16.87;100.00
54882;BME280;40775;51.448;4.742;2023-04-10T09:49:53;101418.53;;;16.89;100.00
54882;BME280;40775;51.448;4.742;2023-04-10T09:52:28;101422.97;;;16.89;100.00
54882;BME280;40775;51.448;4.742;2023-04-10T09:55:06;101412.34;;;16.86;100.00
54882;BME280;40775;51.448;4.742;2023-04-10T09:57:34;101400.53;;;15.20;100.00
54882;BME280;40775;51.448;4.742;2023-04-10T10:00:06;101406.63;;;15.12;100.00
54882;BME280;40775;51.448;4.742;2023-04-10T10:02:39;101405.72;;;15.09;100.00
54882;BME280;40775;51.448;4.742;2023-04-10T10:05:08;101397.72;;;15.06;100.00
54882;BME280;40775;51.448;4.742;2023-04-10T10:07:37;101393.41;;;15.14;100.00
54882;BME280;40775;51.448;4.742;2023-04-10T10:10:06;101384.69;;;15.24;100.00
54882;BME280;40775;51.448;4.742;2023-04-10T10:12:47;101381.16;;;15.25;100.00
54882;BME280;40775;51.448;4.742;2023-04-10T10:20:55;101362.81;;;15.40;100.00
54882;BME280;40775;51.448;4.742;2023-04-10T10:23:22;101355.78;;;15.44;100.00
54882;BME280;40775;51.448;4.742;2023-04-10T10:25:52;101359.38;;;15.55;100.00
54882;BME280;40775;51.448;4.742;2023-04-10T10:28:20;101340.97;;;15.63;100.00
54882;BME280;40775;51.448;4.742;2023-04-10T10:30:48;101348.06;;;15.65;100.00
54882;BME280;40775;51.448;4.742;2023-04-10T10:33:16;101348.06;;;15.67;100.00
54882;BME280;40775;51.448;4.742;2023-04-10T10:35:43;101347.19;;;15.69;100.00
54882;BME280;40775;51.448;4.742;2023-04-10T10:38:11;101341.97;;;15.79;100.00
54882;BME280;40775;51.448;4.742;2023-04-10T10:40:58;101341.16;;;15.89;100.00
54882;BME280;40775;51.448;4.742;2023-04-10T10:44:05;101319.16;;;15.99;100.00
54882;BME280;40775;51.448;4.742;2023-04-10T10:46:48;101315.72;;;16.18;100.00
54882;BME280;40775;51.448;4.742;2023-04-10T10:49:16;101315.72;;;16.18;100.00
54882;BME280;40775;51.448;4.742;2023-04-10T10:51:50;101304.38;;;16.45;100.00
54882;BME280;40775;51.448;4.742;2023-04-10T10:54:32;101303.50;;;16.46;100.00
54882;BME280;40775;51.448;4.742;2023-04-10T10:57:01;101292.00;;;16.47;100.00
54882;BME280;40775;51.448;4.742;2023-04-10T11:02:16;101274.34;;;16.54;100.00
54882;BME280;40775;51.448;4.742;2023-04-10T11:04:48;101278.81;;;16.67;100.00
54882;BME280;40775;51.448;4.742;2023-04-10T11:07:15;101281.50;;;16.76;100.00
54882;BME280;40775;51.448;4.742;2023-04-10T11:09:50;101277.97;;;16.73;100.00
54882;BME280;40775;51.448;4.742;2023-04-10T11:12:23;101271.78;;;16.72;100.00
54882;BME280;40775;51.448;4.742;2023-04-10T11:14:59;101264.72;;;16.85;100.00
54882;BME280;40775;51.448;4.742;2023-04-10T11:17:49;101260.31;;;16.88;100.00
54882;BME280;40775;51.448;4.742;2023-04-10T11:20:19;101257.66;;;16.91;100.00
54882;BME280;40775;51.448;4.742;2023-04-10T11:23:20;101252.38;;;17.04;100.00
54882;BME280;40775;51.448;4.742;2023-04-10T11:25:51;101247.94;;;17.03;100.00
54882;BME280;40775;51.448;4.742;2023-04-10T11:31:20;101229.34;;;17.22;100.00
54882;BME280;40775;51.448;4.742;2023-04-10T11:36:23;101225.81;;;17.22;100.00
54882;BME280;40775;51.448;4.742;2023-04-10T11:39:01;101216.97;;;17.32;100.00
54882;BME280;40775;51.448;4.742;2023-04-10T11:41:32;101221.38;;;17.25;100.00
54882;BME280;40775;51.448;4.742;2023-04-10T11:44:02;101210.78;;;17.21;100.00
54882;BME280;40775;51.448;4.742;2023-04-10T11:46:30;101212.56;;;17.26;100.00
54882;BME280;40775;51.448;4.742;2023-04-10T11:48:59;101207.25;;;17.22;100.00
54882;BME280;40775;51.448;4.742;2023-04-10T11:51:27;101205.47;;;17.30;100.00
54882;BME280;40775;51.448;4.742;2023-04-10T11:54:25;101193.97;;;17.37;100.00
54882;BME280;40775;51.448;4.742;2023-04-10T11:57:06;101186.00;;;17.33;100.00
54882;BME280;40775;51.448;4.742;2023-04-10T11:59:37;101192.19;;;17.36;100.00
54882;BME280;40775;51.448;4.742;2023-04-10T12:02:12;101193.06;;;17.41;100.00
54882;BME280;40775;51.448;4.742;2023-04-10T12:04:43;101180.69;;;17.42;100.00
54882;BME280;40775;51.448;4.742;2023-04-10T12:07:10;101170.94;;;17.42;100.00
54882;BME280;40775;51.448;4.742;2023-04-10T12:09:38;101161.22;;;17.41;100.00
54882;BME280;40775;51.448;4.742;2023-04-10T12:12:06;101169.19;;;17.40;100.00
54882;BME280;40775;51.448;4.742;2023-04-10T12:14:36;101148.84;;;17.39;100.00
54882;BME280;40775;51.448;4.742;2023-04-10T12:17:07;101157.69;;;17.39;100.00
54882;BME280;40775;51.448;4.742;2023-04-10T12:19:35;101147.97;;;17.32;100.00
54882;BME280;40775;51.448;4.742;2023-04-10T12:22:03;101150.63;;;17.32;100.00
54882;BME280;40775;51.448;4.742;2023-04-10T12:24:48;101152.41;;;17.33;100.00
54882;BME280;40775;51.448;4.742;2023-04-10T12:27:24;101139.16;;;17.30;100.00
54882;BME280;40775;51.448;4.742;2023-04-10T12:29:55;101137.31;;;17.41;100.00
54882;BME280;40775;51.448;4.742;2023-04-10T12:32:23;101137.34;;;17.38;100.00
54882;BME280;40775;51.448;4.742;2023-04-10T12:34:53;101141.75;;;17.41;100.00
54882;BME280;40775;51.448;4.742;2023-04-10T12:37:24;101135.56;;;17.36;100.00
54882;BME280;40775;51.448;4.742;2023-04-10T12:39:51;101131.16;;;17.32;100.00
54882;BME280;40775;51.448;4.742;2023-04-10T12:42:22;101125.84;;;17.25;100.00
54882;BME280;40775;51.448;4.742;2023-04-10T12:44:58;101139.16;;;17.18;100.00
54882;BME280;40775;51.448;4.742;2023-04-10T12:47:28;101133.84;;;17.15;100.00
54882;BME280;40775;51.448;4.742;2023-04-10T12:50:09;101128.53;;;17.21;100.00
54882;BME280;40775;51.448;4.742;2023-04-10T12:52:45;101126.75;;;17.20;100.00
54882;BME280;40775;51.448;4.742;2023-04-10T12:55:17;101123.22;;;17.21;100.00
54882;BME280;40775;51.448;4.742;2023-04-10T12:57:47;101133.88;;;17.09;100.00
54882;BME280;40775;51.448;4.742;2023-04-10T13:00:18;101134.78;;;17.05;100.00
54882;BME280;40775;51.448;4.742;2023-04-10T13:02:47;101120.63;;;16.93;100.00
54882;BME280;40775;51.448;4.742;2023-04-10T13:05:15;101113.56;;;16.79;100.00
54882;BME280;40775;51.448;4.742;2023-04-10T13:07:42;101108.28;;;16.74;100.00
54882;BME280;40775;51.448;4.742;2023-04-10T13:10:09;101098.53;;;16.70;100.00
54882;BME280;40775;51.448;4.742;2023-04-10T13:12:36;101098.53;;;16.67;100.00
54882;BME280;40775;51.448;4.742;2023-04-10T13:15:05;101086.19;;;16.66;100.00
54882;BME280;40775;51.448;4.742;2023-04-10T13:17:33;101088.81;;;16.66;100.00